Aérodrome :
LOGIN :

S'inscrire | Disclaimer

   EN    FR    IT 

 










Légende :    VFR   VFR Marginal   IFR   IFR Intensif   IFR Très Intensif
Visi : 
Plafond : 
>= 8 km
>= 3000ft
5 à 8 km
1000 à 3000 ft
1500m à 5 km
500 à 1000 ft
800 à 1500m
200 à 500 ft
< 800m
< 200 ft
Symboles :   Orages  Brouillard  Fortes neiges  Fortes précipitations  Vent > 20 kt
SIGMETs :   Divers  Orages  Givrage  Turbulence  Onde Orograph.  Cendres Volcan.






- Altitude de l'aérodrome : 1585 ft
- Code IATA : SIR


LSGS - Sion

DERNIER METAR :
  • 102150Z AUTO VRB02KT CAVOK 20/19 Q1020

METARs EXPIRÉS :
  • 102120Z AUTO VRB01KT CAVOK 20/19 Q1020
  • 102050Z AUTO VRB02KT CAVOK 20/19 Q1020
  • 102020Z AUTO VRB02KT 9999 -RA BKN/// 21/19 Q1020
  • 101950Z AUTO 27004KT 9999 RA BKN/// 22/19 Q1020
  • 101920Z AUTO 25006KT 210V300 9999 -RA BKN/// 22/19 Q1019

TAF TAF LSGS
Valide du 10 à 15h jusqu'au 11 à 00h UTC


101425Z 1015/1024 25012KT 9999 SCT100
PROB40
TEMPO 1015/1018 TS SCT100CB
BECMG 1018/1020 VRB02KT



MET'MAP, la Météo Aéronautique d'un coup d'oeil ! - Copyright ORBIFLY Décembre 2007 - Disclaimer

ORBIFLY MET'MAP TEAM :

Programmation & Développement : Alexandra Zaïnal
Sur une idée originale de : Baudouin d'Aumeries
Assistance à la programmation : Marc-Olivier Méhu
Soutien technique & logistique : Manuel Goepfert

Contact : metmap@orbifly.com




SOURCES & CREDITS :

   NOAA